Time;durP1;ratioP1;P1;durP2;ratioP2;P2;SDS_P1;SDS_P2;PMS_P1;PMS_P2;Temp;Humidity;BMP_temperature;BMP_pressure;BME280_temperature;BME280_humidity;BME280_pressure;Samples;Min_cycle;Max_cycle;Signal;HPM_P1;HPM_P2
2022/03/26 00:02:15;;;;;;;37.43;27.80;;;11.70;51.90;;;;;;5077809;28;20472;-65
2022/03/26 00:04:42;;;;;;;36.47;27.37;;;11.60;52.50;;;;;;5077793;28;20450;-65
2022/03/26 00:07:08;;;;;;;35.40;27.10;;;11.70;52.30;;;;;;5077741;28;20452;-65
2022/03/26 00:09:35;;;;;;;32.50;24.07;;;11.60;52.30;;;;;;5077709;28;20448;-65
2022/03/26 00:12:02;;;;;;;33.40;25.23;;;11.60;52.20;;;;;;5077714;28;20477;-65
2022/03/26 00:14:29;;;;;;;34.73;26.20;;;11.60;52.10;;;;;;5077615;28;20947;-65
2022/03/26 00:16:56;;;;;;;32.40;24.40;;;11.60;52.20;;;;;;5077474;28;20471;-65
2022/03/26 00:19:24;;;;;;;31.40;24.67;;;11.50;52.10;;;;;;5077297;28;20491;-64
2022/03/26 00:21:51;;;;;;;30.30;23.67;;;11.40;52.00;;;;;;5078427;28;20468;-64
2022/03/26 00:24:17;;;;;;;37.90;27.13;;;11.40;52.20;;;;;;5079729;28;20452;-64
2022/03/26 00:26:44;;;;;;;34.37;24.90;;;11.40;52.40;;;;;;5080143;28;20457;-65
2022/03/26 00:29:11;;;;;;;40.57;27.20;;;11.30;52.60;;;;;;5080231;28;20444;-64
2022/03/26 00:31:38;;;;;;;38.50;27.07;;;11.30;52.60;;;;;;5079917;28;20464;-64
2022/03/26 00:34:06;;;;;;;37.97;28.37;;;11.20;52.80;;;;;;5081216;28;20452;-64
2022/03/26 00:36:34;;;;;;;39.93;28.67;;;11.10;52.80;;;;;;5081524;28;20544;-65
2022/03/26 00:39:01;;;;;;;36.83;28.07;;;11.10;52.90;;;;;;5079954;28;20848;-64
2022/03/26 00:41:28;;;;;;;38.67;26.70;;;11.00;53.00;;;;;;5080131;28;20472;-65
2022/03/26 00:43:55;;;;;;;40.13;27.47;;;10.90;53.00;;;;;;5080197;28;20468;-64
2022/03/26 00:46:22;;;;;;;35.57;26.00;;;10.80;53.00;;;;;;5080187;28;20480;-64
2022/03/26 00:48:49;;;;;;;34.57;26.20;;;10.80;53.20;;;;;;5079728;28;20931;-65
2022/03/26 00:51:17;;;;;;;39.87;26.53;;;10.70;53.40;;;;;;5079360;28;20469;-64
2022/03/26 00:53:46;;;;;;;38.20;26.30;;;10.70;53.70;;;;;;5079716;28;20453;-64
2022/03/26 00:56:13;;;;;;;35.90;25.60;;;10.70;54.00;;;;;;5079782;28;20453;-64
2022/03/26 00:58:40;;;;;;;41.20;29.63;;;10.60;53.90;;;;;;5080193;28;20483;-63
2022/03/26 01:01:07;;;;;;;36.17;27.40;;;10.60;54.20;;;;;;5079129;28;20979;-64
2022/03/26 01:03:34;;;;;;;39.20;28.23;;;10.60;54.40;;;;;;5080158;28;20472;-64
2022/03/26 01:06:01;;;;;;;36.80;28.00;;;10.50;54.50;;;;;;5087199;28;20444;-64
2022/03/26 01:08:28;;;;;;;39.90;29.70;;;10.50;54.60;;;;;;5088946;28;20448;-64
2022/03/26 01:10:57;;;;;;;36.27;27.03;;;10.40;54.80;;;;;;5081741;28;20538;-64
2022/03/26 01:13:25;;;;;;;40.10;28.87;;;10.40;55.00;;;;;;5081108;28;20460;-64
2022/03/26 01:15:52;;;;;;;37.13;26.70;;;10.30;55.00;;;;;;5080911;28;20886;-64
2022/03/26 01:18:19;;;;;;;39.23;27.13;;;10.30;55.10;;;;;;5080785;28;20457;-65
2022/03/26 01:20:46;;;;;;;35.57;25.60;;;10.20;55.20;;;;;;5079994;28;20468;-65
2022/03/26 01:23:13;;;;;;;39.30;26.03;;;10.20;55.40;;;;;;5080390;28;20449;-64
2022/03/26 01:25:39;;;;;;;37.83;28.40;;;10.20;55.60;;;;;;5080102;28;20449;-64
2022/03/26 01:28:08;;;;;;;34.43;26.77;;;10.10;55.70;;;;;;5079690;28;20535;-65
2022/03/26 01:30:35;;;;;;;39.47;25.83;;;10.10;55.80;;;;;;5079099;28;20455;-65
2022/03/26 01:33:01;;;;;;;42.00;28.27;;;10.10;55.90;;;;;;5078407;28;20444;-65
2022/03/26 01:35:28;;;;;;;47.30;28.00;;;10.10;56.00;;;;;;5078971;28;20448;-64
2022/03/26 01:37:55;;;;;;;38.33;27.80;;;10.10;56.00;;;;;;5080053;28;20449;-64
2022/03/26 01:40:22;;;;;;;43.50;29.40;;;10.00;55.90;;;;;;5079820;28;20481;-64
2022/03/26 01:42:48;;;;;;;38.50;26.77;;;10.00;56.10;;;;;;5079044;28;20456;-64
2022/03/26 01:45:16;;;;;;;39.43;26.70;;;10.00;56.40;;;;;;5079669;28;20456;-64
2022/03/26 01:47:43;;;;;;;39.90;28.27;;;10.00;56.40;;;;;;5079978;28;20799;-64
2022/03/26 01:50:10;;;;;;;40.03;29.30;;;10.00;56.60;;;;;;5079755;28;20437;-64
2022/03/26 01:52:37;;;;;;;40.63;28.93;;;10.00;56.60;;;;;;5079126;28;20468;-64
2022/03/26 01:55:05;;;;;;;34.90;25.87;;;10.00;56.60;;;;;;5078983;28;20459;-64
2022/03/26 01:57:32;;;;;;;32.80;24.90;;;9.90;57.40;;;;;;5078708;28;20805;-64
2022/03/26 01:59:59;;;;;;;35.60;25.43;;;9.90;57.50;;;;;;5079025;28;20485;-64
2022/03/26 02:02:27;;;;;;;34.07;25.50;;;9.90;57.50;;;;;;5079350;28;20483;-64
2022/03/26 02:04:54;;;;;;;37.20;24.20;;;9.80;57.60;;;;;;5079435;28;20516;-64
2022/03/26 02:07:21;;;;;;;33.70;24.60;;;9.70;57.60;;;;;;5079760;28;20445;-64
2022/03/26 02:09:49;;;;;;;33.90;24.50;;;9.70;57.70;;;;;;5079897;28;20464;-64
2022/03/26 02:12:23;;;;;;;36.23;25.63;;;9.60;57.80;;;;;;5079511;28;20464;-64
2022/03/26 02:14:50;;;;;;;35.27;25.03;;;9.60;58.00;;;;;;5079606;28;20455;-64
2022/03/26 02:17:18;;;;;;;38.97;25.10;;;9.60;58.20;;;;;;5079459;28;20451;-64
2022/03/26 02:19:49;;;;;;;36.93;26.20;;;9.50;58.50;;;;;;5089143;28;20481;-64
2022/03/26 02:22:16;;;;;;;32.90;24.77;;;9.50;58.80;;;;;;5097478;28;20445;-64
2022/03/26 02:24:43;;;;;;;32.47;24.50;;;9.50;58.70;;;;;;5091548;28;20965;-64
2022/03/26 02:27:10;;;;;;;33.37;26.20;;;9.50;58.70;;;;;;5080909;28;20448;-64
2022/03/26 02:29:37;;;;;;;37.13;24.03;;;9.50;58.80;;;;;;5080959;28;20456;-64
2022/03/26 02:32:04;;;;;;;38.97;24.67;;;9.40;58.90;;;;;;5080183;28;20838;-63
2022/03/26 02:34:31;;;;;;;35.37;26.30;;;9.40;58.80;;;;;;5075068;28;20451;-63
2022/03/26 02:37:00;;;;;;;32.53;23.77;;;9.40;58.90;;;;;;5073811;28;20456;-63
2022/03/26 02:39:26;;;;;;;37.20;27.00;;;9.40;59.00;;;;;;5073655;28;20477;-63
2022/03/26 02:41:53;;;;;;;39.37;27.23;;;9.40;59.30;;;;;;5073772;28;20479;-64
2022/03/26 02:44:20;;;;;;;38.40;26.87;;;9.30;59.30;;;;;;5073711;28;20444;-63
2022/03/26 02:46:47;;;;;;;30.10;24.03;;;9.30;59.40;;;;;;5073672;28;20805;-63
2022/03/26 02:49:15;;;;;;;37.20;25.73;;;9.20;59.30;;;;;;5073689;28;20448;-63
2022/03/26 02:51:42;;;;;;;34.60;23.70;;;9.20;59.30;;;;;;5073471;28;20476;-63
2022/03/26 02:54:18;;;;;;;35.80;25.30;;;9.20;59.50;;;;;;5073417;28;20973;-63
2022/03/26 02:56:45;;;;;;;33.30;24.20;;;9.20;59.60;;;;;;5073559;28;20488;-63
2022/03/26 02:59:12;;;;;;;41.10;26.63;;;9.10;59.60;;;;;;5073573;28;20523;-63
2022/03/26 03:01:39;;;;;;;36.63;24.10;;;9.10;59.80;;;;;;5073334;28;20476;-64
2022/03/26 03:04:06;;;;;;;43.97;27.10;;;9.10;59.90;;;;;;5074304;28;20458;-63
2022/03/26 03:06:33;;;;;;;40.00;28.13;;;9.10;60.10;;;;;;5073088;28;20939;-63
2022/03/26 03:09:00;;;;;;;41.50;29.93;;;9.10;60.80;;;;;;5073086;28;20449;-63
2022/03/26 03:11:29;;;;;;;49.50;32.60;;;9.10;61.60;;;;;;5073347;28;20508;-63
2022/03/26 03:13:56;;;;;;;53.03;33.30;;;9.10;62.10;;;;;;5072965;28;20803;-63
2022/03/26 03:16:23;;;;;;;52.23;35.20;;;9.10;62.40;;;;;;5073266;28;20463;-62
2022/03/26 03:18:50;;;;;;;51.90;32.67;;;9.10;63.00;;;;;;5072968;28;20459;-63
2022/03/26 03:21:17;;;;;;;41.93;27.43;;;9.10;63.20;;;;;;5072940;28;21049;-63
2022/03/26 03:23:45;;;;;;;38.10;26.37;;;9.10;62.70;;;;;;5073273;28;20448;-63
2022/03/26 03:26:11;;;;;;;39.93;28.57;;;9.10;62.00;;;;;;5072931;28;20433;-63
2022/03/26 03:28:40;;;;;;;36.17;26.53;;;9.00;61.80;;;;;;5073304;28;20455;-63
2022/03/26 03:31:06;;;;;;;39.17;26.50;;;9.00;61.70;;;;;;5073138;28;20487;-63
2022/03/26 03:33:33;;;;;;;39.90;25.67;;;8.90;61.50;;;;;;5073143;28;20451;-63
2022/03/26 03:36:00;;;;;;;35.53;26.60;;;8.90;62.10;;;;;;5073253;28;20460;-63
2022/03/26 03:38:27;;;;;;;36.07;27.40;;;8.90;62.00;;;;;;5073338;28;20449;-63
2022/03/26 03:40:55;;;;;;;45.57;29.23;;;8.80;61.50;;;;;;5073060;28;20488;-63
2022/03/26 03:43:22;;;;;;;37.70;27.80;;;8.80;61.70;;;;;;5072908;28;20989;-63
2022/03/26 03:45:50;;;;;;;42.00;30.80;;;8.70;62.00;;;;;;5073011;28;20448;-63
2022/03/26 03:48:17;;;;;;;42.63;31.43;;;8.70;62.30;;;;;;5072967;28;20455;-63
2022/03/26 03:50:46;;;;;;;42.13;29.20;;;8.70;62.50;;;;;;5072979;28;20471;-63
2022/03/26 03:53:15;;;;;;;42.97;29.43;;;8.70;63.00;;;;;;5072891;28;20500;-63
2022/03/26 03:55:41;;;;;;;39.87;27.40;;;8.70;63.00;;;;;;5073027;28;20448;-63
2022/03/26 03:58:08;;;;;;;41.30;28.27;;;8.60;63.00;;;;;;5076584;28;20829;-63
2022/03/26 04:00:35;;;;;;;47.60;29.63;;;8.60;63.30;;;;;;5076592;28;20492;-63
2022/03/26 04:03:03;;;;;;;44.57;28.90;;;8.60;64.50;;;;;;5076725;28;20451;-63
2022/03/26 04:05:30;;;;;;;42.93;29.90;;;8.50;64.20;;;;;;5076724;28;20444;-62
2022/03/26 04:07:56;;;;;;;44.63;30.23;;;8.50;64.40;;;;;;5076591;28;20453;-63
2022/03/26 04:10:23;;;;;;;44.57;30.20;;;8.50;64.60;;;;;;5076456;28;20447;-63
2022/03/26 04:12:50;;;;;;;39.00;28.37;;;8.50;64.60;;;;;;5076223;28;20452;-63
2022/03/26 04:15:17;;;;;;;45.43;30.13;;;8.40;64.40;;;;;;5076441;28;20506;-63
2022/03/26 04:17:44;;;;;;;48.10;30.93;;;8.40;64.40;;;;;;5076158;28;20940;-63
2022/03/26 04:20:12;;;;;;;39.20;28.43;;;8.30;64.90;;;;;;5075969;28;20488;-63
2022/03/26 04:22:40;;;;;;;43.40;30.80;;;8.30;64.90;;;;;;5076243;28;20460;-63
2022/03/26 04:25:08;;;;;;;43.20;30.20;;;8.30;64.60;;;;;;5076197;28;20468;-63
2022/03/26 04:27:35;;;;;;;44.80;31.00;;;8.20;64.60;;;;;;5076417;28;20448;-63
2022/03/26 04:30:01;;;;;;;43.03;29.80;;;8.20;64.90;;;;;;5076161;28;20448;-63
2022/03/26 04:32:29;;;;;;;42.67;30.57;;;8.20;65.30;;;;;;5076149;28;20483;-63
2022/03/26 04:34:56;;;;;;;43.03;28.67;;;8.20;65.50;;;;;;5075979;28;20452;-63
2022/03/26 04:37:24;;;;;;;47.07;29.27;;;8.20;65.60;;;;;;5076079;28;20457;-63
2022/03/26 04:39:51;;;;;;;43.17;29.97;;;8.20;65.80;;;;;;5075977;28;20857;-63
2022/03/26 04:42:18;;;;;;;49.93;31.73;;;8.20;66.20;;;;;;5075936;28;20829;-63
2022/03/26 04:44:45;;;;;;;42.17;29.17;;;8.10;66.50;;;;;;5076030;28;20452;-63
2022/03/26 04:47:11;;;;;;;45.03;29.87;;;8.10;66.90;;;;;;5075835;28;20452;-63
2022/03/26 04:49:38;;;;;;;47.07;31.63;;;8.10;66.70;;;;;;5075567;28;20443;-62
2022/03/26 04:52:06;;;;;;;40.83;29.47;;;8.10;66.30;;;;;;5075791;28;21044;-63
2022/03/26 04:54:34;;;;;;;42.23;29.50;;;8.10;66.30;;;;;;5075840;28;20448;-63
2022/03/26 04:57:01;;;;;;;42.23;27.93;;;8.10;66.50;;;;;;5075931;28;20444;-63
2022/03/26 04:59:27;;;;;;;38.33;27.47;;;8.00;67.10;;;;;;5075518;28;20444;-63
2022/03/26 05:01:54;;;;;;;43.10;28.13;;;8.00;66.20;;;;;;5075563;28;20476;-63
2022/03/26 05:04:21;;;;;;;40.30;28.00;;;8.00;66.30;;;;;;5075584;28;20456;-63
2022/03/26 05:06:48;;;;;;;34.70;26.03;;;7.90;66.30;;;;;;5074917;28;20966;-62
2022/03/26 05:09:14;;;;;;;40.23;27.27;;;7.90;66.40;;;;;;5075543;28;20460;-63
2022/03/26 05:11:43;;;;;;;42.93;27.30;;;7.90;66.50;;;;;;5075017;28;20465;-63
2022/03/26 05:14:09;;;;;;;44.37;28.40;;;7.80;66.40;;;;;;5075363;28;20540;-63
2022/03/26 05:16:37;;;;;;;45.03;29.17;;;7.80;66.80;;;;;;5075351;28;20436;-63
2022/03/26 05:19:03;;;;;;;39.57;27.20;;;7.80;67.30;;;;;;5075029;28;20510;-63
2022/03/26 05:21:31;;;;;;;44.13;27.47;;;7.80;67.50;;;;;;5075140;28;20533;-63
2022/03/26 05:23:57;;;;;;;43.00;27.67;;;7.80;67.20;;;;;;5075241;28;20535;-62
2022/03/26 05:26:24;;;;;;;39.03;27.90;;;7.80;67.20;;;;;;5075401;28;20453;-63
2022/03/26 05:28:52;;;;;;;41.67;28.87;;;7.80;67.70;;;;;;5074906;28;20820;-62
2022/03/26 05:31:19;;;;;;;42.10;29.80;;;7.70;67.90;;;;;;5074947;28;20461;-62
2022/03/26 05:33:46;;;;;;;42.60;29.87;;;7.70;67.90;;;;;;5075238;28;20545;-63
2022/03/26 05:36:13;;;;;;;46.90;29.50;;;7.70;67.90;;;;;;5075408;28;20449;-63
2022/03/26 05:38:39;;;;;;;41.07;28.20;;;7.60;67.80;;;;;;5074923;28;20506;-63
2022/03/26 05:41:07;;;;;;;41.00;27.47;;;7.60;67.50;;;;;;5074555;28;21022;-63
2022/03/26 05:43:33;;;;;;;40.40;29.37;;;7.60;67.30;;;;;;5075134;28;20445;-62
2022/03/26 05:46:01;;;;;;;43.07;29.00;;;7.60;67.60;;;;;;5075121;28;20453;-62
2022/03/26 05:48:28;;;;;;;41.30;28.27;;;7.60;68.20;;;;;;5074727;28;20948;-62
2022/03/26 05:50:55;;;;;;;47.20;29.50;;;7.60;68.50;;;;;;5075035;28;20468;-63
2022/03/26 05:53:22;;;;;;;45.17;29.27;;;7.60;68.90;;;;;;5075126;28;20444;-62
2022/03/26 05:55:48;;;;;;;44.73;30.43;;;7.60;69.20;;;;;;5075346;28;20449;-62
2022/03/26 05:58:16;;;;;;;45.00;31.23;;;7.60;69.50;;;;;;5075115;28;20449;-62
2022/03/26 06:00:43;;;;;;;47.07;31.10;;;7.60;69.80;;;;;;5074935;28;20542;-63
2022/03/26 06:03:11;;;;;;;43.90;29.40;;;7.60;70.20;;;;;;5075787;28;20452;-61
2022/03/26 06:05:38;;;;;;;47.10;32.70;;;7.60;70.40;;;;;;5074642;28;20448;-62
2022/03/26 06:08:05;;;;;;;41.20;29.17;;;7.60;70.40;;;;;;5075097;28;20459;-63
2022/03/26 06:10:34;;;;;;;43.07;28.60;;;7.70;70.40;;;;;;5074299;28;20871;-63
2022/03/26 06:13:01;;;;;;;44.10;28.57;;;7.70;70.30;;;;;;5075303;28;20464;-62
2022/03/26 06:15:28;;;;;;;47.33;28.77;;;7.70;70.30;;;;;;5075465;28;20469;-63
2022/03/26 06:17:54;;;;;;;45.13;30.07;;;7.80;70.70;;;;;;5076034;28;20931;-63
2022/03/26 06:20:23;;;;;;;43.13;29.97;;;7.70;70.90;;;;;;5075318;28;20441;-62
2022/03/26 06:22:49;;;;;;;44.07;30.53;;;7.70;71.10;;;;;;5075326;28;20451;-62
2022/03/26 06:25:16;;;;;;;48.43;30.77;;;7.70;71.10;;;;;;5074210;28;20935;-62
2022/03/26 06:27:43;;;;;;;45.60;33.20;;;7.70;71.60;;;;;;5074140;28;20444;-62
2022/03/26 06:30:11;;;;;;;50.97;31.90;;;7.80;72.10;;;;;;5073676;28;20487;-63
2022/03/26 06:32:38;;;;;;;44.57;29.93;;;7.80;72.50;;;;;;5073760;28;20461;-62
2022/03/26 06:35:06;;;;;;;46.90;30.67;;;7.80;72.70;;;;;;5073761;28;20455;-62
2022/03/26 06:37:34;;;;;;;41.13;29.70;;;7.80;72.90;;;;;;5073942;28;20456;-62
2022/03/26 06:40:01;;;;;;;41.60;31.00;;;7.90;73.70;;;;;;5074126;28;20455;-62
2022/03/26 06:42:29;;;;;;;45.10;31.50;;;7.90;74.00;;;;;;5073645;28;20887;-62
2022/03/26 06:44:59;;;;;;;50.97;34.20;;;8.00;74.10;;;;;;5073799;28;20451;-63
2022/03/26 06:47:26;;;;;;;49.97;33.60;;;8.10;74.50;;;;;;5073719;28;20455;-63
2022/03/26 06:49:53;;;;;;;53.30;36.80;;;8.10;74.50;;;;;;5073582;28;20452;-63
2022/03/26 06:52:21;;;;;;;48.40;31.97;;;8.20;74.90;;;;;;5073652;28;20920;-64
2022/03/26 06:54:49;;;;;;;47.90;32.20;;;8.30;75.50;;;;;;5073824;28;20440;-63
2022/03/26 06:57:16;;;;;;;53.33;34.67;;;8.40;74.20;;;;;;5073570;28;20449;-63
2022/03/26 06:59:43;;;;;;;56.93;35.60;;;8.50;75.70;;;;;;5074088;28;20450;-63
2022/03/26 07:02:09;;;;;;;49.10;34.00;;;8.50;76.30;;;;;;5073567;28;20627;-64
2022/03/26 07:04:36;;;;;;;54.17;37.10;;;8.60;76.80;;;;;;5073185;28;20445;-63
2022/03/26 07:07:03;;;;;;;54.10;35.10;;;8.70;76.90;;;;;;5073701;28;20455;-63
2022/03/26 07:09:30;;;;;;;48.07;35.23;;;8.70;77.10;;;;;;5073244;28;20455;-64
2022/03/26 07:11:58;;;;;;;53.80;37.70;;;8.80;77.50;;;;;;5073663;28;20484;-64
2022/03/26 07:14:25;;;;;;;51.90;36.70;;;8.90;77.30;;;;;;5073704;28;20456;-64
2022/03/26 07:16:51;;;;;;;50.80;36.37;;;9.10;77.30;;;;;;5073363;28;20463;-63
2022/03/26 07:19:18;;;;;;;52.10;35.53;;;9.20;77.80;;;;;;5072997;28;20459;-63
2022/03/26 07:21:45;;;;;;;44.43;33.77;;;9.30;78.20;;;;;;5073624;28;20465;-64
2022/03/26 07:24:11;;;;;;;59.47;37.40;;;9.40;78.00;;;;;;5073039;28;20468;-64
2022/03/26 07:26:38;;;;;;;55.03;37.83;;;9.60;77.90;;;;;;5073774;28;20437;-64
2022/03/26 07:29:06;;;;;;;49.30;34.53;;;9.70;77.60;;;;;;5073071;28;20455;-63
2022/03/26 07:31:33;;;;;;;50.10;34.20;;;9.80;77.40;;;;;;5074722;28;20491;-63
2022/03/26 07:34:00;;;;;;;45.37;34.30;;;10.00;75.70;;;;;;5077987;28;20448;-64
2022/03/26 07:36:26;;;;;;;50.27;36.90;;;10.10;75.00;;;;;;5077247;28;20816;-63
2022/03/26 07:38:53;;;;;;;46.90;34.40;;;10.20;74.50;;;;;;5077391;28;20447;-64
2022/03/26 07:41:21;;;;;;;45.93;31.47;;;10.40;74.00;;;;;;5077127;28;20468;-63
2022/03/26 07:43:48;;;;;;;45.30;30.40;;;10.60;72.60;;;;;;5076980;28;20448;-64
2022/03/26 07:46:18;;;;;;;53.00;36.30;;;10.70;70.50;;;;;;5077138;28;20444;-64
2022/03/26 07:48:45;;;;;;;50.83;33.10;;;10.90;68.80;;;;;;5076811;28;20646;-63
2022/03/26 07:51:12;;;;;;;40.90;30.70;;;11.00;68.40;;;;;;5076581;28;20647;-64
2022/03/26 07:53:38;;;;;;;55.10;35.37;;;11.20;67.60;;;;;;5076528;28;20447;-63
2022/03/26 07:56:05;;;;;;;50.07;34.77;;;11.40;66.70;;;;;;5076887;28;20452;-64
2022/03/26 07:58:32;;;;;;;52.37;35.00;;;11.50;68.80;;;;;;5076903;28;20433;-64
2022/03/26 08:00:59;;;;;;;46.43;35.50;;;11.70;68.60;;;;;;5076692;28;20460;-64
2022/03/26 08:03:27;;;;;;;49.93;34.50;;;11.90;67.90;;;;;;5076738;28;20445;-64
2022/03/26 08:05:54;;;;;;;47.83;35.10;;;12.10;67.10;;;;;;5076664;28;20447;-64
2022/03/26 08:08:20;;;;;;;50.37;36.10;;;12.20;66.20;;;;;;5076576;28;20456;-64
2022/03/26 08:10:47;;;;;;;50.80;36.83;;;12.40;65.10;;;;;;5076249;28;20866;-65
2022/03/26 08:13:14;;;;;;;48.07;32.60;;;12.50;64.80;;;;;;5076621;28;20445;-65
2022/03/26 08:15:40;;;;;;;45.60;33.40;;;12.70;63.90;;;;;;5076063;28;20828;-65
2022/03/26 08:18:08;;;;;;;45.50;34.10;;;12.90;62.30;;;;;;5075924;28;20452;-64
2022/03/26 08:20:36;;;;;;;50.30;35.07;;;13.10;61.20;;;;;;5077120;28;20435;-64
2022/03/26 08:23:03;;;;;;;55.67;38.27;;;13.30;61.00;;;;;;5076344;28;20452;-65
2022/03/26 08:28:11;;;;;;;51.07;36.70;;;13.60;62.80;;;;;;5042701;28;20468;-65
2022/03/26 08:30:40;;;;;;;50.80;38.37;;;13.80;62.60;;;;;;5076018;28;20464;-65
2022/03/26 08:33:08;;;;;;;48.73;36.50;;;13.90;62.00;;;;;;5076071;28;20444;-65
2022/03/26 08:35:41;;;;;;;52.07;36.80;;;14.00;61.00;;;;;;5075798;28;20963;-65
2022/03/26 08:38:09;;;;;;;48.90;36.50;;;14.10;60.00;;;;;;5076032;28;20432;-64
2022/03/26 08:40:36;;;;;;;44.50;36.37;;;14.30;59.60;;;;;;5075880;28;20453;-65
2022/03/26 08:43:04;;;;;;;50.43;36.80;;;14.50;58.80;;;;;;5075456;28;20451;-65
2022/03/26 08:45:31;;;;;;;52.43;39.90;;;14.60;58.10;;;;;;5075987;28;20441;-65
2022/03/26 08:47:58;;;;;;;50.73;36.93;;;14.70;58.00;;;;;;5075989;28;20453;-65
2022/03/26 08:50:25;;;;;;;47.13;38.20;;;14.90;57.50;;;;;;5075736;28;20449;-65
2022/03/26 08:52:53;;;;;;;49.63;35.67;;;14.90;56.90;;;;;;5075373;28;21017;-65
2022/03/26 08:55:20;;;;;;;47.00;35.10;;;15.00;56.80;;;;;;5075858;28;20479;-64
2022/03/26 08:57:47;;;;;;;48.43;37.60;;;15.00;56.50;;;;;;5075675;28;20472;-64
2022/03/26 09:00:16;;;;;;;46.60;36.53;;;15.20;56.20;;;;;;5075433;28;20448;-65
2022/03/26 09:02:43;;;;;;;43.73;34.17;;;15.20;56.10;;;;;;5075527;28;20554;-65
2022/03/26 09:05:12;;;;;;;44.13;34.90;;;15.30;56.50;;;;;;5075252;28;20867;-65
2022/03/26 09:07:39;;;;;;;51.70;36.70;;;15.50;56.20;;;;;;5075477;28;20495;-65
2022/03/26 09:10:08;;;;;;;49.83;36.30;;;15.70;55.30;;;;;;5075668;28;20518;-65
2022/03/26 09:12:35;;;;;;;42.93;34.30;;;15.80;54.80;;;;;;5075251;28;20491;-65
2022/03/26 09:15:02;;;;;;;44.77;35.37;;;16.00;54.60;;;;;;5075604;28;20466;-65
2022/03/26 09:17:29;;;;;;;47.73;35.10;;;16.20;54.10;;;;;;5075380;28;20453;-65
2022/03/26 09:19:56;;;;;;;44.33;35.10;;;16.50;53.40;;;;;;5074976;28;20457;-65
2022/03/26 09:22:23;;;;;;;47.70;33.97;;;16.70;53.00;;;;;;5074972;28;20539;-65
2022/03/26 09:24:50;;;;;;;45.53;33.63;;;17.00;52.10;;;;;;5075387;28;20449;-65
2022/03/26 09:27:18;;;;;;;41.73;33.50;;;17.30;52.00;;;;;;5075248;28;20827;-65
2022/03/26 09:29:45;;;;;;;44.20;35.27;;;17.60;50.90;;;;;;5075383;28;20449;-65
2022/03/26 09:32:12;;;;;;;42.70;32.93;;;17.80;50.60;;;;;;5075515;28;20561;-65
2022/03/26 09:34:39;;;;;;;49.70;36.90;;;18.10;51.00;;;;;;5075739;28;20449;-65
2022/03/26 09:37:06;;;;;;;43.30;36.10;;;18.30;50.00;;;;;;5075548;28;20464;-64
2022/03/26 09:39:32;;;;;;;45.27;33.77;;;18.60;49.70;;;;;;5074853;28;20449;-64
2022/03/26 09:41:59;;;;;;;44.77;34.50;;;18.80;48.50;;;;;;5074853;28;20971;-64
2022/03/26 09:44:28;;;;;;;54.07;34.07;;;19.00;48.30;;;;;;5075115;28;20452;-64
2022/03/26 09:46:55;;;;;;;44.63;33.90;;;19.30;47.90;;;;;;5075551;28;20456;-64
2022/03/26 09:49:23;;;;;;;46.20;36.23;;;19.60;47.00;;;;;;5075145;28;20792;-65
2022/03/26 09:51:54;;;;;;;40.60;33.97;;;19.80;46.10;;;;;;5075184;28;20491;-65
2022/03/26 09:54:22;;;;;;;41.40;34.73;;;20.10;45.20;;;;;;5074700;28;20440;-63
2022/03/26 09:56:49;;;;;;;43.67;34.23;;;20.30;45.00;;;;;;5074833;28;20448;-65
2022/03/26 09:59:20;;;;;;;46.97;32.90;;;20.60;44.80;;;;;;5074813;28;20441;-64
2022/03/26 10:01:48;;;;;;;42.37;34.57;;;20.80;43.40;;;;;;5074833;28;20963;-64
2022/03/26 10:04:15;;;;;;;40.87;32.20;;;21.10;42.90;;;;;;5074213;28;20832;-64
2022/03/26 10:06:49;;;;;;;40.93;30.70;;;21.40;42.60;;;;;;5073950;28;20947;-64
2022/03/26 10:09:26;;;;;;;35.23;30.07;;;21.60;41.30;;;;;;5074359;28;20464;-64
2022/03/26 10:11:59;;;;;;;37.30;32.47;;;22.00;41.10;;;;;;5073997;28;21055;-65
2022/03/26 10:14:37;;;;;;;38.77;32.47;;;22.30;40.60;;;;;;5074087;28;20436;-63
2022/03/26 10:17:18;;;;;;;38.53;33.67;;;22.60;39.50;;;;;;5074779;28;20429;-64
2022/03/26 10:19:47;;;;;;;40.30;33.43;;;22.90;38.10;;;;;;5074004;28;20491;-64
2022/03/26 10:22:23;;;;;;;37.57;32.50;;;23.30;37.80;;;;;;5073600;28;21006;-64
2022/03/26 10:24:50;;;;;;;38.70;30.80;;;23.60;37.40;;;;;;5074249;28;20478;-65
2022/03/26 10:27:17;;;;;;;35.90;31.00;;;24.00;36.90;;;;;;5074008;28;20862;-64
2022/03/26 10:29:52;;;;;;;36.03;30.07;;;24.30;36.00;;;;;;5073733;28;20453;-64
2022/03/26 10:32:39;;;;;;;33.43;28.70;;;24.70;35.20;;;;;;5074024;28;20500;-65
2022/03/26 10:35:19;;;;;;;38.77;30.30;;;25.00;33.70;;;;;;5073574;28;20802;-64
2022/03/26 10:37:56;;;;;;;31.00;27.60;;;25.40;32.40;;;;;;5074911;28;20475;-64
2022/03/26 10:40:25;;;;;;;38.07;30.20;;;25.90;31.70;;;;;;5074249;28;20432;-65
2022/03/26 10:43:01;;;;;;;33.57;30.07;;;26.30;30.80;;;;;;5074369;28;20803;-64
2022/03/26 10:45:30;;;;;;;37.17;29.53;;;26.60;30.50;;;;;;5074083;28;20911;-64
2022/03/26 10:48:00;;;;;;;34.67;30.93;;;27.10;30.40;;;;;;5073830;28;20440;-64
2022/03/26 10:50:31;;;;;;;32.43;28.93;;;27.50;28.80;;;;;;5074106;28;20429;-65
2022/03/26 10:52:58;;;;;;;32.37;29.07;;;27.90;28.10;;;;;;5074121;28;20476;-65
2022/03/26 10:55:25;;;;;;;33.13;29.52;;;28.30;27.40;;;;;;5073246;28;20449;-65
2022/03/26 10:57:52;;;;;;;32.53;28.20;;;28.90;26.80;;;;;;5074062;28;20620;-64
2022/03/26 11:00:20;;;;;;;30.80;27.60;;;29.40;25.90;;;;;;5073392;28;20453;-63
2022/03/26 11:02:47;;;;;;;31.10;27.80;;;29.80;24.90;;;;;;5074395;28;20459;-63
2022/03/26 11:05:16;;;;;;;31.07;28.03;;;30.30;24.70;;;;;;5074006;28;20455;-63
2022/03/26 11:07:43;;;;;;;35.53;30.67;;;30.70;24.50;;;;;;5074286;28;20498;-63
2022/03/26 11:10:12;;;;;;;37.10;33.17;;;31.00;23.60;;;;;;5074061;28;20452;-63
2022/03/26 11:12:48;;;;;;;34.80;31.30;;;31.30;23.00;;;;;;5074024;28;20572;-63
2022/03/26 11:15:21;;;;;;;34.50;30.90;;;31.40;23.00;;;;;;5074137;28;20431;-63
2022/03/26 11:18:04;;;;;;;36.03;32.27;;;31.50;22.70;;;;;;5073803;28;20916;-63
2022/03/26 11:20:48;;;;;;;34.80;31.27;;;31.70;23.10;;;;;;5074196;28;20543;-63
2022/03/26 11:23:28;;;;;;;34.33;30.70;;;32.00;22.90;;;;;;5073748;28;20427;-63
2022/03/26 11:26:07;;;;;;;34.23;30.77;;;32.30;22.10;;;;;;5073500;28;20427;-63
2022/03/26 11:28:49;;;;;;;33.83;30.53;;;32.60;23.00;;;;;;5073963;28;20429;-64
2022/03/26 11:31:25;;;;;;;33.50;29.97;;;32.80;21.50;;;;;;5073958;28;20456;-64
2022/03/26 11:34:03;;;;;;;32.93;29.77;;;32.90;21.30;;;;;;5074384;28;20431;-64
2022/03/26 11:36:32;;;;;;;30.33;26.87;;;33.00;21.40;;;;;;5074081;28;20489;-63
2022/03/26 11:39:10;;;;;;;28.07;25.10;;;33.30;21.60;;;;;;5073498;28;20818;-65
2022/03/26 11:41:37;;;;;;;30.27;25.20;;;33.70;21.20;;;;;;5074641;28;20525;-66
2022/03/26 11:44:06;;;;;;;28.43;25.50;;;34.00;20.90;;;;;;5073793;28;20444;-64
2022/03/26 11:52:20;;;;;;;21.83;19.50;;;34.40;19.90;;;;;;5073105;28;20481;-64
2022/03/26 11:54:48;;;;;;;19.43;17.57;;;34.70;19.30;;;;;;5072885;28;20942;-64
2022/03/26 11:57:20;;;;;;;17.70;15.60;;;35.00;18.90;;;;;;5072921;28;20813;-64
2022/03/26 11:59:47;;;;;;;20.00;18.00;;;35.30;18.70;;;;;;5073091;28;20451;-64
2022/03/26 12:02:20;;;;;;;25.90;22.90;;;35.70;18.10;;;;;;5072610;28;20241;-64
2022/03/26 12:04:55;;;;;;;26.93;20.30;;;36.00;18.10;;;;;;5072853;28;20206;-64
2022/03/26 12:07:25;;;;;;;24.93;17.40;;;36.10;18.20;;;;;;5072917;28;20189;-64
2022/03/26 12:10:10;;;;;;;21.80;14.07;;;36.20;17.70;;;;;;5073901;28;20267;-64
2022/03/26 12:12:47;;;;;;;15.73;14.23;;;36.40;16.50;;;;;;5074593;28;20214;-64
2022/03/26 12:15:26;;;;;;;17.70;15.57;;;36.50;17.00;;;;;;5072851;28;20202;-64
2022/03/26 12:17:54;;;;;;;16.80;15.00;;;36.80;16.80;;;;;;5074965;28;20197;-64
2022/03/26 12:20:26;;;;;;;16.88;13.25;;;37.00;16.70;;;;;;5077114;28;20220;-64
2022/03/26 12:23:04;;;;;;;15.52;14.10;;;37.20;16.60;;;;;;5076512;28;20681;-64
2022/03/26 12:25:35;;;;;;;17.08;15.40;;;37.50;15.70;;;;;;5076689;28;20660;-64
2022/03/26 12:28:02;;;;;;;15.77;14.18;;;37.70;15.40;;;;;;5076970;28;20228;-64
2022/03/26 12:30:29;;;;;;;17.23;15.23;;;37.90;15.60;;;;;;5077239;28;20227;-65
2022/03/26 12:32:58;;;;;;;16.00;14.32;;;38.20;15.60;;;;;;5077396;28;20673;-65
2022/03/26 12:35:26;;;;;;;13.80;12.38;;;38.50;15.50;;;;;;5077263;28;20672;-65
2022/03/26 12:37:54;;;;;;;13.25;11.93;;;38.80;15.30;;;;;;5076908;28;20202;-64
2022/03/26 12:40:21;;;;;;;12.25;10.75;;;39.10;15.10;;;;;;5076897;28;20572;-64
2022/03/26 12:42:53;;;;;;;11.48;10.30;;;39.30;14.50;;;;;;5076805;28;20651;-64
2022/03/26 12:45:20;;;;;;;10.35;9.32;;;39.50;14.50;;;;;;5076938;28;20597;-64